Time;durP1;ratioP1;P1;durP2;ratioP2;P2;SDS_P1;SDS_P2;PMS_P1;PMS_P2;Temp;Humidity;BMP_temperature;BMP_pressure;BME280_temperature;BME280_humidity;BME280_pressure;Samples;Min_cycle;Max_cycle;Signal;HPM_P1;HPM_P2
2021/06/14 00:01:33;;;;;;;1.90;0.50;;;;;;;28.63;24.02;98769.00;5059697;28;20047;-84
2021/06/14 00:03:59;;;;;;;1.20;0.50;;;;;;;29.05;23.43;98761.25;5063549;28;20032;-84
2021/06/14 00:06:26;;;;;;;0.98;0.50;;;;;;;29.47;22.66;98761.94;5067542;28;20031;-84
2021/06/14 00:08:52;;;;;;;1.02;0.63;;;;;;;29.53;23.05;98754.44;5051714;28;20041;-84
2021/06/14 00:11:18;;;;;;;2.83;0.60;;;;;;;29.68;22.87;98752.72;5054560;28;20044;-84
2021/06/14 00:13:44;;;;;;;1.70;0.55;;;;;;;29.82;22.50;98740.94;5053266;28;20036;-84
2021/06/14 00:16:10;;;;;;;1.52;0.43;;;;;;;29.77;22.75;98737.88;5053465;28;20035;-84
2021/06/14 00:18:38;;;;;;;1.10;0.60;;;;;;;29.71;22.74;98746.13;5060976;28;20029;-84
2021/06/14 00:21:08;;;;;;;1.55;0.57;;;;;;;29.45;23.01;98744.63;5056974;28;20415;-84
2021/06/14 00:23:34;;;;;;;2.50;0.50;;;;;;;29.06;23.86;98739.38;5051351;28;20481;-84
2021/06/14 00:26:03;;;;;;;1.15;0.60;;;;;;;28.89;23.83;98735.91;5062625;28;20036;-84
2021/06/14 00:28:29;;;;;;;1.25;0.50;;;;;;;28.80;23.93;98743.47;5055305;28;20037;-83
2021/06/14 00:30:55;;;;;;;1.75;0.77;;;;;;;28.48;24.64;98733.06;5056941;28;20099;-83
2021/06/14 00:33:22;;;;;;;3.08;0.50;;;;;;;28.47;24.38;98737.91;5060209;28;20118;-84
2021/06/14 00:35:48;;;;;;;1.98;0.50;;;;;;;28.68;23.92;98736.56;5057712;28;20030;-84
2021/06/14 00:38:15;;;;;;;1.50;0.60;;;;;;;29.06;23.29;98742.22;5062094;28;20083;-83
2021/06/14 00:40:42;;;;;;;1.65;0.57;;;;;;;28.96;23.37;98749.00;5063362;28;20043;-83
2021/06/14 00:43:09;;;;;;;1.38;0.60;;;;;;;28.99;23.75;98745.25;5065267;28;20021;-84
2021/06/14 00:45:45;;;;;;;0.77;0.50;;;;;;;29.01;23.41;98749.22;5064234;28;20468;-84
2021/06/14 00:48:11;;;;;;;1.38;0.52;;;;;;;29.20;23.27;98745.41;5064737;28;20488;-83
2021/06/14 00:50:45;;;;;;;0.90;0.50;;;;;;;29.10;23.13;98757.06;5055652;28;20043;-84
2021/06/14 00:53:14;;;;;;;0.98;0.50;;;;;;;29.32;23.00;98741.78;5062669;28;20036;-84
2021/06/14 00:55:41;;;;;;;5.07;0.60;;;;;;;29.57;22.53;98745.84;5056793;28;20033;-84
2021/06/14 00:58:08;;;;;;;2.55;0.40;;;;;;;29.77;22.33;98744.34;5055229;28;20489;-84
2021/06/14 01:00:34;;;;;;;2.05;0.60;;;;;;;29.77;22.28;98750.00;5055517;28;20033;-84
2021/06/14 01:03:01;;;;;;;1.30;0.55;;;;;;;29.55;22.57;98749.09;5062685;28;20087;-84
2021/06/14 01:05:29;;;;;;;1.00;0.50;;;;;;;29.39;22.96;98747.22;5067641;28;20028;-84
2021/06/14 01:07:56;;;;;;;1.67;0.50;;;;;;;29.60;22.65;98756.22;5060424;28;20033;-84
2021/06/14 01:10:22;;;;;;;1.02;0.55;;;;;;;29.53;22.45;98751.59;5092143;28;20048;-84
2021/06/14 01:13:11;;;;;;;0.60;0.40;;;;;;;29.36;22.87;98755.81;5069585;28;20482;-84
2021/06/14 01:15:59;;;;;;;1.35;0.38;;;;;;;29.65;22.21;98752.81;5051899;28;20068;-84
2021/06/14 01:18:55;;;;;;;2.05;1.15;;;;;;;29.60;22.29;98750.56;5060590;28;20104;-84
2021/06/14 01:21:45;;;;;;;1.13;0.50;;;;;;;29.14;22.82;98754.91;5055892;28;20052;-84
2021/06/14 01:24:40;;;;;;;0.93;0.50;;;;;;;29.19;22.55;98752.34;5061146;28;20378;-84
2021/06/14 01:27:12;;;;;;;2.33;0.60;;;;;;;29.23;22.45;98758.66;5064878;28;20072;-84
2021/06/14 01:29:40;;;;;;;1.58;0.47;;;;;;;29.31;22.45;98762.06;5063801;28;20036;-84
2021/06/14 01:32:08;;;;;;;0.77;0.47;;;;;;;29.30;22.36;98763.28;5062884;28;20033;-84
2021/06/14 01:34:38;;;;;;;1.58;0.50;;;;;;;29.40;22.36;98757.31;5058773;28;20052;-84
2021/06/14 01:37:07;;;;;;;2.10;0.77;;;;;;;29.04;22.76;98765.28;5056204;28;20075;-84
2021/06/14 01:39:37;;;;;;;5.20;0.88;;;;;;;28.71;23.14;98755.41;5056525;28;20400;-84
2021/06/14 01:42:05;;;;;;;0.98;0.55;;;;;;;28.22;23.77;98762.47;5058344;28;20033;-84
2021/06/14 01:44:32;;;;;;;0.68;0.50;;;;;;;28.12;24.01;98767.19;5055582;28;20102;-83
2021/06/14 01:47:01;;;;;;;1.98;0.52;;;;;;;27.90;24.20;98761.31;5053363;28;20021;-84
2021/06/14 01:49:28;;;;;;;0.85;0.40;;;;;;;27.77;24.16;98763.25;5064029;28;20040;-84
2021/06/14 01:51:54;;;;;;;3.33;0.70;;;;;;;27.62;24.26;98762.03;5064190;28;20028;-84
2021/06/14 01:54:20;;;;;;;3.05;0.73;;;;;;;27.65;24.52;98761.16;5062927;28;20477;-84
2021/06/14 01:56:50;;;;;;;5.57;0.70;;;;;;;27.65;24.39;98761.16;5061321;28;20032;-84
2021/06/14 01:59:23;;;;;;;1.13;0.50;;;;;;;27.85;23.67;98758.22;5054842;28;20120;-84
2021/06/14 02:01:50;;;;;;;2.53;0.60;;;;;;;28.05;23.91;98761.75;5063773;28;20033;-84
2021/06/14 02:04:16;;;;;;;3.70;0.50;;;;;;;27.97;23.92;98758.28;5061934;28;20103;-84
2021/06/14 02:06:46;;;;;;;1.75;0.52;;;;;;;27.91;23.92;98753.63;5058749;28;20091;-84
2021/06/14 02:09:18;;;;;;;4.35;0.57;;;;;;;27.81;23.91;98763.97;5059798;28;20399;-86
2021/06/14 02:11:48;;;;;;;0.73;0.50;;;;;;;27.83;23.79;98760.69;5056918;28;20488;-85
2021/06/14 02:14:21;;;;;;;1.52;0.65;;;;;;;28.02;23.54;98766.25;5062650;28;20040;-84
2021/06/14 02:16:49;;;;;;;1.85;0.57;;;;;;;28.11;22.96;98756.34;5057839;28;20025;-84
2021/06/14 02:19:16;;;;;;;1.00;0.50;;;;;;;28.17;22.98;98757.41;5054450;28;20083;-84
2021/06/14 02:21:43;;;;;;;1.58;0.63;;;;;;;28.22;22.91;98760.44;5055202;28;20055;-84
2021/06/14 02:24:09;;;;;;;2.90;0.63;;;;;;;28.22;22.75;98766.09;5058327;28;20064;-84
2021/06/14 02:26:37;;;;;;;1.25;0.45;;;;;;;27.82;23.24;98761.94;5063735;28;20036;-84
2021/06/14 02:29:04;;;;;;;0.70;0.70;;;;;;;27.56;23.73;98765.84;5065533;28;20385;-84
2021/06/14 02:31:31;;;;;;;1.65;0.52;;;;;;;27.42;23.92;98764.94;5055385;28;20399;-84
2021/06/14 02:33:57;;;;;;;1.25;0.60;;;;;;;27.13;24.14;98760.41;5060668;28;20032;-84
2021/06/14 02:36:24;;;;;;;3.17;0.65;;;;;;;27.10;24.36;98759.25;5053853;28;20035;-85
2021/06/14 02:38:52;;;;;;;1.58;0.82;;;;;;;27.28;24.12;98764.50;5053734;28;20041;-84
2021/06/14 02:41:20;;;;;;;2.47;0.80;;;;;;;27.40;24.10;98758.16;5055137;28;20472;-84
2021/06/14 02:43:49;;;;;;;0.95;0.63;;;;;;;27.34;23.99;98763.53;5056667;28;20392;-84
2021/06/14 02:46:16;;;;;;;1.63;0.85;;;;;;;27.29;23.91;98768.88;5060240;28;20078;-84
2021/06/14 02:48:47;;;;;;;5.78;0.93;;;;;;;27.23;24.16;98765.00;5057294;28;20107;-84
2021/06/14 02:51:13;;;;;;;;;;;;;;;27.27;24.31;98768.53;5056906;28;20025;-84
2021/06/14 02:53:40;;;;;;;0.68;0.43;;;;;;;27.85;22.96;98769.50;5062565;28;19944;-84
2021/06/14 02:56:16;;;;;;;2.55;0.60;;;;;;;27.92;23.36;98756.00;5068692;28;20032;-84
2021/06/14 02:58:44;;;;;;;0.65;0.60;;;;;;;27.74;23.27;98769.78;5059589;28;20056;-84
2021/06/14 03:01:12;;;;;;;1.38;0.63;;;;;;;27.38;23.83;98764.25;5059631;28;20034;-84
2021/06/14 03:03:43;;;;;;;2.50;0.80;;;;;;;27.10;24.43;98764.91;5069636;28;20476;-83
2021/06/14 03:06:17;;;;;;;0.55;0.40;;;;;;;27.05;24.28;98767.47;5056506;28;20059;-84
2021/06/14 03:08:44;;;;;;;4.90;0.70;;;;;;;26.99;24.53;98763.56;5069489;28;20029;-84
2021/06/14 03:11:10;;;;;;;0.93;0.60;;;;;;;27.04;24.21;98765.84;5062267;28;20507;-84
2021/06/14 03:13:41;;;;;;;3.70;0.98;;;;;;;27.07;24.56;98765.00;5056264;28;20040;-84
2021/06/14 03:16:07;;;;;;;2.23;0.87;;;;;;;27.22;24.40;98769.06;5068967;28;20499;-84
2021/06/14 03:18:33;;;;;;;3.50;0.70;;;;;;;27.14;24.61;98771.25;5058403;28;20287;-84
2021/06/14 03:21:00;;;;;;;2.00;0.60;;;;;;;27.46;23.99;98778.19;5056387;28;22095;-84
2021/06/14 03:23:26;;;;;;;1.63;0.68;;;;;;;27.78;23.49;98784.59;5054590;28;20044;-85
2021/06/14 03:25:52;;;;;;;1.83;0.85;;;;;;;27.97;23.39;98778.06;5059694;28;20048;-84
2021/06/14 03:28:20;;;;;;;2.05;0.68;;;;;;;28.16;23.14;98765.06;5058657;28;20061;-85
2021/06/14 03:30:48;;;;;;;2.58;0.50;;;;;;;28.21;23.48;98770.19;5052737;28;20032;-84
2021/06/14 03:33:18;;;;;;;5.25;1.13;;;;;;;28.19;23.65;98778.31;5058978;28;20037;-84
2021/06/14 03:35:45;;;;;;;1.58;0.73;;;;;;;28.49;23.51;98780.66;5062622;28;20449;-84
2021/06/14 03:38:12;;;;;;;1.77;0.65;;;;;;;28.90;23.64;98779.88;5064986;28;20036;-84
2021/06/14 03:40:39;;;;;;;1.75;0.70;;;;;;;29.39;23.45;98789.66;5054196;28;20036;-84
2021/06/14 03:43:06;;;;;;;5.50;0.80;;;;;;;29.62;23.19;98782.84;5062614;28;20108;-84
2021/06/14 03:45:33;;;;;;;1.88;0.90;;;;;;;29.55;22.97;98774.56;5057599;28;20028;-84
2021/06/14 03:47:59;;;;;;;2.75;1.08;;;;;;;29.37;22.78;98778.00;5060329;28;20025;-84
2021/06/14 03:50:26;;;;;;;2.65;1.13;;;;;;;29.43;23.25;98766.88;5067750;28;20048;-84
2021/06/14 03:52:53;;;;;;;3.70;0.80;;;;;;;29.34;23.19;98764.75;5056052;28;20522;-84
2021/06/14 03:55:20;;;;;;;4.00;1.10;;;;;;;29.42;23.25;98768.94;5060491;28;20047;-84
2021/06/14 03:57:47;;;;;;;2.75;0.90;;;;;;;29.74;23.13;98767.88;5055234;28;20092;-84
2021/06/14 04:00:15;;;;;;;1.70;0.80;;;;;;;30.44;22.45;98773.09;5059854;28;20070;-85
2021/06/14 04:02:42;;;;;;;2.72;0.90;;;;;;;30.97;22.37;98773.16;5064436;28;20031;-84
2021/06/14 04:05:10;;;;;;;1.15;0.80;;;;;;;31.51;21.36;98758.44;5057352;28;20037;-84
2021/06/14 04:07:36;;;;;;;2.15;0.85;;;;;;;32.02;21.50;98756.66;5056627;28;20029;-84
2021/06/14 04:10:05;;;;;;;3.15;0.95;;;;;;;32.51;20.82;98754.44;5068571;28;20045;-85
2021/06/14 04:12:32;;;;;;;1.80;0.77;;;;;;;32.92;20.84;98761.47;5067273;28;20035;-85
2021/06/14 04:14:58;;;;;;;2.28;1.00;;;;;;;33.03;19.69;98769.53;5069632;28;20103;-85
2021/06/14 04:17:25;;;;;;;3.15;0.73;;;;;;;32.75;19.95;98763.09;5067400;28;20032;-85
2021/06/14 04:19:51;;;;;;;1.52;0.80;;;;;;;32.90;20.79;98768.91;5056209;28;20139;-84
2021/06/14 04:22:17;;;;;;;1.95;0.80;;;;;;;32.54;20.21;98772.59;5069092;28;20062;-85
2021/06/14 04:24:43;;;;;;;2.03;0.88;;;;;;;32.17;20.74;98771.81;5060986;28;20171;-84
2021/06/14 04:27:09;;;;;;;2.60;1.02;;;;;;;32.06;20.74;98775.13;5066319;28;20040;-84
2021/06/14 04:29:36;;;;;;;1.80;0.90;;;;;;;31.74;21.12;98769.22;5058940;28;20123;-85
2021/06/14 04:32:02;;;;;;;1.95;0.85;;;;;;;31.84;22.31;98763.06;5062923;28;20469;-85
2021/06/14 04:34:28;;;;;;;1.90;0.70;;;;;;;31.61;21.17;98760.03;5069411;28;20429;-84
2021/06/14 04:36:54;;;;;;;1.15;0.77;;;;;;;30.83;22.34;98760.28;5056204;28;20048;-84
2021/06/14 04:39:21;;;;;;;4.05;0.95;;;;;;;31.25;21.80;98758.63;5064201;28;20036;-84
2021/06/14 04:41:47;;;;;;;1.35;0.95;;;;;;;30.46;22.03;98756.44;5062541;28;20107;-84
2021/06/14 04:44:13;;;;;;;1.20;0.80;;;;;;;30.66;22.81;98761.78;5063519;28;20167;-85
2021/06/14 04:46:39;;;;;;;2.38;0.82;;;;;;;30.91;22.53;98772.16;5065831;28;20477;-85
2021/06/14 04:49:06;;;;;;;2.22;0.65;;;;;;;30.99;21.81;98773.50;5065511;28;20044;-85
2021/06/14 04:51:32;;;;;;;2.67;0.70;;;;;;;31.49;21.60;98773.09;5065923;28;20033;-86
2021/06/14 04:53:58;;;;;;;2.20;0.60;;;;;;;31.62;21.45;98772.97;5069971;28;20044;-86
2021/06/14 04:56:24;;;;;;;3.95;0.80;;;;;;;31.66;21.28;98774.41;5066155;28;20025;-85
2021/06/14 04:58:50;;;;;;;1.95;0.80;;;;;;;31.84;21.04;98782.16;5069895;28;20048;-85
2021/06/14 05:01:16;;;;;;;1.95;0.88;;;;;;;31.62;21.36;98779.44;5070184;28;20116;-85
2021/06/14 05:03:42;;;;;;;1.98;0.73;;;;;;;32.04;21.99;98785.38;5075183;28;20036;-85
2021/06/14 05:06:10;;;;;;;1.30;0.63;;;;;;;32.30;21.41;98789.50;5072784;28;20041;-86
2021/06/14 05:08:36;;;;;;;3.03;0.73;;;;;;;32.74;20.86;98787.13;5060158;28;20082;-85
2021/06/14 05:11:02;;;;;;;2.38;0.68;;;;;;;33.03;20.46;98787.41;5063738;28;20502;-85
2021/06/14 05:13:29;;;;;;;1.33;0.52;;;;;;;33.33;20.32;98796.94;5058126;28;20021;-85
2021/06/14 05:15:55;;;;;;;0.90;0.50;;;;;;;33.59;20.43;98781.00;5055925;28;20029;-85
2021/06/14 05:18:21;;;;;;;1.38;0.60;;;;;;;33.49;20.11;98776.63;5057833;28;20053;-86
2021/06/14 05:20:47;;;;;;;2.08;0.43;;;;;;;33.72;20.59;98775.91;5063504;28;20044;-85
2021/06/14 05:23:13;;;;;;;3.70;0.73;;;;;;;33.21;20.24;98781.63;5059983;28;20499;-85
2021/06/14 05:25:39;;;;;;;2.42;0.70;;;;;;;33.10;20.93;98777.72;5057972;28;20029;-85
2021/06/14 05:28:06;;;;;;;1.13;0.30;;;;;;;33.24;20.38;98774.97;5054891;28;20501;-85
2021/06/14 05:30:33;;;;;;;1.13;0.50;;;;;;;33.11;20.37;98777.25;5062253;28;20454;-84
2021/06/14 05:32:59;;;;;;;1.05;0.40;;;;;;;33.56;20.22;98773.44;5060777;28;20037;-85
2021/06/14 05:35:26;;;;;;;2.33;0.60;;;;;;;33.50;20.72;98771.69;5067296;28;20025;-86
2021/06/14 05:37:52;;;;;;;1.10;0.50;;;;;;;33.44;20.13;98780.13;5071823;28;20119;-85
2021/06/14 05:40:18;;;;;;;1.50;0.63;;;;;;;32.59;20.00;98772.78;5067343;28;20036;-83
2021/06/14 05:42:46;;;;;;;2.47;0.82;;;;;;;32.19;21.04;98783.50;5060220;28;20052;-84
2021/06/14 05:45:13;;;;;;;1.05;0.57;;;;;;;31.93;20.98;98777.28;5064673;28;20044;-84
2021/06/14 05:47:39;;;;;;;0.90;0.57;;;;;;;30.62;22.26;98780.97;5063916;28;20052;-85
2021/06/14 05:50:06;;;;;;;1.02;0.50;;;;;;;30.40;22.65;98780.16;5062969;28;20037;-84
2021/06/14 05:52:32;;;;;;;1.13;0.50;;;;;;;30.18;23.59;98787.84;5064756;28;20055;-83
2021/06/14 05:54:58;;;;;;;3.45;0.80;;;;;;;30.64;22.37;98784.88;5067111;28;20063;-86
2021/06/14 05:57:24;;;;;;;1.60;0.60;;;;;;;30.67;22.59;98783.97;5075083;28;20028;-83
2021/06/14 05:59:50;;;;;;;2.67;0.50;;;;;;;30.48;23.22;98793.59;5074064;28;20021;-85
2021/06/14 06:02:17;;;;;;;1.63;0.63;;;;;;;30.09;22.82;98792.16;5054704;28;20036;-85
2021/06/14 06:04:43;;;;;;;0.95;0.45;;;;;;;30.05;22.82;98783.00;5070171;28;20125;-84
2021/06/14 06:07:09;;;;;;;2.13;0.75;;;;;;;30.37;22.81;98781.06;5065670;28;20037;-84
2021/06/14 06:09:35;;;;;;;1.77;0.60;;;;;;;30.45;22.67;98780.38;5068725;28;20442;-85
2021/06/14 06:12:01;;;;;;;1.30;0.45;;;;;;;30.47;23.39;98779.91;5067895;28;20052;-84
2021/06/14 06:14:27;;;;;;;3.03;0.65;;;;;;;30.74;22.73;98772.38;5072136;28;20040;-83
2021/06/14 06:16:54;;;;;;;3.53;0.85;;;;;;;30.31;22.45;98769.53;5061915;28;20033;-83
2021/06/14 06:19:20;;;;;;;3.33;1.13;;;;;;;31.03;22.41;98771.28;5064478;28;20037;-85
2021/06/14 06:21:46;;;;;;;1.48;0.50;;;;;;;30.26;22.85;98777.81;5072063;28;20032;-83
2021/06/14 06:24:12;;;;;;;0.88;0.50;;;;;;;30.08;24.17;98769.97;5071682;28;20040;-85
2021/06/14 06:26:38;;;;;;;0.90;0.68;;;;;;;30.21;23.10;98772.72;5094106;28;20542;-85
2021/06/14 06:29:04;;;;;;;2.05;0.55;;;;;;;31.03;22.34;98759.94;5068448;28;20390;-83
2021/06/14 06:31:31;;;;;;;3.45;0.80;;;;;;;30.91;22.40;98772.16;5055878;28;20109;-83
2021/06/14 06:33:57;;;;;;;1.48;0.40;;;;;;;30.72;22.29;98768.41;5063516;28;20033;-82
2021/06/14 06:36:23;;;;;;;2.20;0.70;;;;;;;30.72;22.75;98765.56;5068166;28;20484;-84
2021/06/14 06:38:49;;;;;;;1.52;0.60;;;;;;;30.54;22.25;98763.44;5073344;28;20060;-83
2021/06/14 06:41:16;;;;;;;2.25;0.60;;;;;;;30.81;21.38;98765.63;5069430;28;20399;-83
2021/06/14 06:43:42;;;;;;;1.20;0.47;;;;;;;31.23;20.89;98763.97;5057757;28;20083;-83
2021/06/14 06:46:11;;;;;;;3.22;0.70;;;;;;;31.24;21.29;98762.72;5053535;28;20512;-83
2021/06/14 06:48:37;;;;;;;2.30;0.55;;;;;;;31.35;20.84;98765.13;5061634;28;20081;-83
2021/06/14 06:51:03;;;;;;;1.20;0.63;;;;;;;31.11;21.26;98766.94;5072003;28;20120;-83
2021/06/14 06:53:30;;;;;;;1.75;0.63;;;;;;;31.27;21.74;98755.34;5072540;28;20051;-84
2021/06/14 06:55:56;;;;;;;3.22;0.70;;;;;;;29.59;22.82;98761.13;5066406;28;20557;-84
2021/06/14 06:58:23;;;;;;;2.15;0.63;;;;;;;30.07;22.30;98754.22;5061093;28;20044;-84
2021/06/14 07:00:51;;;;;;;1.70;0.70;;;;;;;30.04;22.46;98763.59;5059076;28;20033;-84
2021/06/14 07:03:18;;;;;;;1.95;0.70;;;;;;;30.91;21.94;98758.00;5058902;28;20384;-84
2021/06/14 07:05:46;;;;;;;1.27;0.70;;;;;;;30.45;21.79;98759.72;5057329;28;20036;-85
2021/06/14 07:08:12;;;;;;;1.30;0.70;;;;;;;30.76;22.72;98757.72;5052087;28;20044;-83
2021/06/14 07:10:39;;;;;;;1.77;0.57;;;;;;;30.86;22.11;98752.88;5057913;28;20037;-83
2021/06/14 07:13:06;;;;;;;2.20;0.80;;;;;;;31.61;20.97;98760.03;5054742;28;20037;-84
2021/06/14 07:15:33;;;;;;;2.45;0.90;;;;;;;30.73;22.54;98750.94;5053915;28;20029;-83
2021/06/14 07:18:00;;;;;;;1.35;0.40;;;;;;;30.24;24.32;98755.63;5056511;28;20029;-83
2021/06/14 07:20:28;;;;;;;2.15;0.90;;;;;;;29.83;22.82;98755.84;5060512;28;20465;-83
2021/06/14 07:22:54;;;;;;;1.17;0.60;;;;;;;30.15;23.56;98751.91;5071702;28;20128;-84
2021/06/14 07:25:21;;;;;;;2.55;1.23;;;;;;;31.29;21.73;98744.31;5077777;28;20032;-83
2021/06/14 07:27:47;;;;;;;1.27;0.68;;;;;;;30.90;22.47;98757.19;5072355;28;20542;-83
2021/06/14 07:30:17;;;;;;;2.40;0.80;;;;;;;30.27;22.63;98751.84;5058716;28;20041;-83
2021/06/14 07:32:43;;;;;;;4.15;1.15;;;;;;;30.14;22.90;98758.81;5072795;28;20028;-83
2021/06/14 07:35:11;;;;;;;3.05;0.88;;;;;;;30.79;22.25;98745.44;5056571;28;20044;-84
2021/06/14 07:37:38;;;;;;;2.83;0.90;;;;;;;31.28;22.21;98740.66;5070396;28;20048;-83
2021/06/14 07:40:06;;;;;;;1.83;1.00;;;;;;;31.22;22.58;98741.75;5071763;28;20047;-83
2021/06/14 07:42:33;;;;;;;2.30;0.73;;;;;;;31.41;21.50;98744.16;5063972;28;20029;-83
2021/06/14 07:44:59;;;;;;;3.38;0.70;;;;;;;31.04;21.96;98741.69;5070635;28;20500;-83
2021/06/14 07:47:25;;;;;;;3.70;1.58;;;;;;;31.21;21.63;98743.78;5065376;28;20036;-83
2021/06/14 07:49:51;;;;;;;4.15;1.15;;;;;;;31.70;21.67;98748.69;5059583;28;20032;-83
2021/06/14 07:52:17;;;;;;;1.95;1.13;;;;;;;31.90;21.12;98754.72;5062569;28;20029;-83
2021/06/14 07:54:43;;;;;;;2.72;1.00;;;;;;;30.33;23.27;98757.75;5056108;28;20039;-83
2021/06/14 07:57:10;;;;;;;3.58;1.15;;;;;;;30.52;22.72;98751.75;5055457;28;20511;-83
2021/06/14 07:59:36;;;;;;;2.42;1.00;;;;;;;30.37;22.59;98750.69;5061191;28;20040;-84
2021/06/14 08:02:02;;;;;;;1.88;0.90;;;;;;;30.52;23.38;98743.25;5057872;28;20029;-83
2021/06/14 08:04:28;;;;;;;2.70;1.23;;;;;;;31.80;22.41;98733.25;5054419;28;20031;-83
2021/06/14 08:06:55;;;;;;;3.47;0.90;;;;;;;31.87;21.31;98718.75;5059795;28;20125;-83
2021/06/14 08:09:31;;;;;;;6.55;1.40;;;;;;;31.62;21.71;98739.69;5063362;28;20048;-84
2021/06/14 08:11:58;;;;;;;2.00;0.80;;;;;;;30.85;23.04;98737.16;5058321;28;20111;-83
2021/06/14 08:14:25;;;;;;;2.58;0.90;;;;;;;31.06;21.74;98737.13;5057221;28;20025;-83
2021/06/14 08:16:51;;;;;;;1.95;0.60;;;;;;;30.94;22.87;98734.38;5064695;28;20032;-83
2021/06/14 08:27:09;;;;;;;2.58;0.80;;;;;;;32.54;20.68;98744.97;5056632;28;20075;-84
2021/06/14 08:29:35;;;;;;;3.28;0.57;;;;;;;32.87;19.54;98736.50;5060463;28;20473;-85
2021/06/14 08:32:02;;;;;;;0.90;0.43;;;;;;;32.00;19.14;98736.44;5062957;28;20021;-84
2021/06/14 08:34:28;;;;;;;1.50;0.50;;;;;;;31.91;20.83;98734.34;5058059;28;20029;-85
2021/06/14 08:36:54;;;;;;;1.48;0.73;;;;;;;32.68;19.62;98735.78;5059323;28;20033;-84
2021/06/14 08:39:20;;;;;;;1.02;0.43;;;;;;;32.01;20.05;98735.97;5058403;28;20408;-85
2021/06/14 08:41:47;;;;;;;0.50;0.20;;;;;;;31.06;21.33;98737.13;5059968;28;20480;-84
2021/06/14 08:44:13;;;;;;;0.90;0.40;;;;;;;31.80;20.08;98730.41;5062134;28;20048;-84
2021/06/14 08:46:40;;;;;;;3.92;0.70;;;;;;;32.07;20.25;98738.97;5065026;28;20013;-84
2021/06/14 08:49:07;;;;;;;0.90;0.40;;;;;;;32.32;19.37;98730.13;5058534;28;20378;-84
2021/06/14 08:51:34;;;;;;;1.00;0.40;;;;;;;31.19;20.19;98745.50;5059552;28;20079;-84
2021/06/14 08:54:04;;;;;;;0.65;0.40;;;;;;;31.14;20.48;98731.94;5060205;28;20107;-84
2021/06/14 08:56:30;;;;;;;0.32;0.20;;;;;;;31.19;20.63;98729.28;5063299;28;20067;-83
2021/06/14 08:58:57;;;;;;;1.25;0.40;;;;;;;31.19;21.04;98737.00;5065178;28;20087;-84
2021/06/14 09:01:25;;;;;;;1.83;0.50;;;;;;;31.26;19.88;98737.50;5060750;28;20501;-84
2021/06/14 09:03:51;;;;;;;0.90;0.30;;;;;;;31.02;20.80;98738.50;5072886;28;20078;-84
2021/06/14 09:06:17;;;;;;;1.35;0.40;;;;;;;31.13;20.11;98734.00;5080530;28;20598;-83
2021/06/14 09:08:59;;;;;;;1.40;0.43;;;;;;;31.92;19.97;98744.47;5074415;28;20044;-84
2021/06/14 09:11:28;;;;;;;1.75;0.40;;;;;;;30.55;21.36;98747.97;5075852;28;20043;-83
2021/06/14 09:13:54;;;;;;;1.70;0.47;;;;;;;30.05;20.83;98731.22;5071147;28;20440;-84
2021/06/14 09:16:21;;;;;;;2.70;0.40;;;;;;;31.65;20.04;98733.06;5081322;28;20082;-83
2021/06/14 09:18:49;;;;;;;1.23;0.40;;;;;;;31.74;19.58;98735.16;5065202;28;20082;-84
2021/06/14 09:21:18;;;;;;;2.47;0.32;;;;;;;31.73;21.34;98731.50;5068357;28;20473;-84
2021/06/14 09:23:51;;;;;;;0.93;0.30;;;;;;;31.77;19.33;98719.97;5054485;28;20064;-84
2021/06/14 09:26:28;;;;;;;1.23;0.40;;;;;;;30.79;20.46;98714.25;5070835;28;20104;-84
2021/06/14 09:28:59;;;;;;;0.63;0.30;;;;;;;30.07;21.39;98723.06;5059044;28;20045;-84
2021/06/14 09:31:29;;;;;;;2.75;0.60;;;;;;;29.11;22.50;98728.31;5060942;28;20059;-84
2021/06/14 09:33:56;;;;;;;0.90;0.30;;;;;;;30.16;20.64;98714.63;5065825;28;20033;-84
2021/06/14 09:36:23;;;;;;;2.35;0.50;;;;;;;31.81;19.56;98710.03;5058550;28;20037;-84
2021/06/14 09:38:49;;;;;;;1.48;0.30;;;;;;;31.88;20.50;98717.50;5066019;28;20044;-85
2021/06/14 09:41:17;;;;;;;1.05;0.30;;;;;;;33.08;18.71;98721.28;5077012;28;20043;-84
2021/06/14 09:43:46;;;;;;;0.98;0.50;;;;;;;32.91;17.99;98717.22;5062500;28;20040;-84
2021/06/14 09:46:28;;;;;;;1.42;0.50;;;;;;;32.57;18.20;98715.59;5055252;28;20029;-84
2021/06/14 09:48:57;;;;;;;0.73;0.30;;;;;;;31.86;19.26;98719.97;5064012;28;20040;-84
2021/06/14 09:51:24;;;;;;;0.38;0.20;;;;;;;31.42;19.52;98722.25;5059462;28;20058;-83
2021/06/14 09:53:53;;;;;;;1.02;0.30;;;;;;;32.07;19.00;98719.06;5065898;28;20039;-83
2021/06/14 09:56:22;;;;;;;0.30;0.30;;;;;;;31.50;18.91;98720.75;5067126;28;20045;-84
2021/06/14 09:58:51;;;;;;;0.63;0.30;;;;;;;32.25;17.96;98712.63;5060574;28;20072;-84
2021/06/14 10:01:34;;;;;;;0.40;0.30;;;;;;;33.83;16.93;98709.81;5055023;28;20059;-84
2021/06/14 10:04:07;;;;;;;2.05;0.30;;;;;;;33.30;17.44;98715.34;5065014;28;20029;-84
2021/06/14 10:06:42;;;;;;;0.90;0.30;;;;;;;33.30;17.18;98721.81;5072939;28;20052;-85
2021/06/14 10:09:13;;;;;;;0.22;0.20;;;;;;;33.46;16.76;98712.09;5074251;28;20035;-84
2021/06/14 10:11:41;;;;;;;0.63;0.32;;;;;;;33.79;16.37;98703.53;5060108;28;20043;-84
2021/06/14 10:14:15;;;;;;;4.35;0.47;;;;;;;33.48;17.22;98711.59;5060279;28;20024;-84
2021/06/14 10:16:43;;;;;;;0.52;0.35;;;;;;;33.09;16.60;98705.81;5059957;28;20029;-84
2021/06/14 10:19:11;;;;;;;0.95;0.30;;;;;;;34.41;16.77;98703.47;5061444;28;20040;-84
2021/06/14 10:21:45;;;;;;;0.50;0.20;;;;;;;34.23;15.69;98698.75;5054382;28;20036;-84
2021/06/14 10:24:14;;;;;;;0.90;0.10;;;;;;;34.08;16.99;98700.75;5064166;28;20377;-84
2021/06/14 10:26:43;;;;;;;0.80;0.20;;;;;;;32.02;19.52;98694.16;5054720;28;20021;-84
2021/06/14 10:29:14;;;;;;;0.20;0.20;;;;;;;33.43;16.54;98688.22;5061392;28;20075;-84
2021/06/14 10:31:45;;;;;;;1.73;0.22;;;;;;;30.68;20.21;98700.53;5063909;28;20576;-85
2021/06/14 10:34:13;;;;;;;0.22;0.22;;;;;;;29.87;19.74;98700.69;5062138;28;20481;-85
2021/06/14 10:36:44;;;;;;;0.10;0.10;;;;;;;30.03;19.48;98688.41;5061537;28;20021;-84
2021/06/14 10:39:11;;;;;;;0.22;0.20;;;;;;;31.40;18.32;98693.56;5065507;28;20059;-85
2021/06/14 10:41:39;;;;;;;0.20;0.20;;;;;;;32.13;17.82;98691.63;5063930;28;20029;-85
2021/06/14 10:44:06;;;;;;;0.52;0.20;;;;;;;33.18;16.70;98688.69;5062690;28;20093;-85
2021/06/14 10:46:33;;;;;;;1.30;0.20;;;;;;;32.85;17.94;98679.31;5079580;28;20115;-84
2021/06/14 10:49:01;;;;;;;0.43;0.25;;;;;;;32.12;17.06;98678.66;5060325;28;20155;-84
2021/06/14 10:51:32;;;;;;;0.13;0.13;;;;;;;32.42;16.73;98685.41;5062518;28;20116;-85
2021/06/14 10:54:06;;;;;;;0.10;0.10;;;;;;;32.24;18.51;98683.41;5065482;28;20029;-84
2021/06/14 10:56:33;;;;;;;2.05;0.20;;;;;;;31.15;19.60;98676.78;5061771;28;20516;-83
2021/06/14 10:59:04;;;;;;;0.52;0.30;;;;;;;30.36;19.67;98689.63;5060350;28;20029;-83
2021/06/14 11:01:41;;;;;;;0.10;0.10;;;;;;;31.68;18.07;98683.06;5058819;28;20040;-84
2021/06/14 11:04:09;;;;;;;0.35;0.20;;;;;;;31.32;16.61;98681.72;5052965;28;20025;-84
2021/06/14 11:06:37;;;;;;;0.38;0.10;;;;;;;31.47;18.21;98675.47;5057861;28;20081;-83
2021/06/14 11:09:08;;;;;;;2.40;0.22;;;;;;;32.52;18.33;98667.09;5057997;28;20030;-84
2021/06/14 11:11:54;;;;;;;0.20;0.20;;;;;;;32.60;16.01;98663.44;5063010;28;20036;-83
2021/06/14 11:14:41;;;;;;;0.80;0.20;;;;;;;30.88;18.44;98665.31;5054839;28;20078;-83
2021/06/14 11:17:20;;;;;;;0.65;0.20;;;;;;;31.87;17.96;98671.25;5066123;28;20043;-83
2021/06/14 11:19:59;;;;;;;0.30;0.20;;;;;;;31.02;18.22;98667.59;5058919;28;20033;-83
2021/06/14 11:22:40;;;;;;;1.02;0.10;;;;;;;32.46;16.95;98658.41;5060117;28;20024;-83
2021/06/14 11:25:18;;;;;;;;;;;;;;;33.53;15.97;98663.34;5063920;28;20040;-83
2021/06/14 11:27:44;;;;;;;0.20;0.20;;;;;;;30.75;17.67;98657.72;5061740;28;20352;-83
2021/06/14 11:30:23;;;;;;;0.88;0.28;;;;;;;30.11;18.59;98655.72;5068027;28;20554;-83
2021/06/14 11:32:49;;;;;;;0.30;0.20;;;;;;;31.56;18.32;98653.56;5062077;28;20549;-83
2021/06/14 11:35:17;;;;;;;0.30;0.20;;;;;;;32.18;18.42;98641.88;5065981;28;20068;-83
2021/06/14 11:37:45;;;;;;;0.43;0.20;;;;;;;33.38;16.73;98637.63;5065512;28;20036;-83
2021/06/14 11:40:15;;;;;;;1.45;0.30;;;;;;;35.07;16.19;98624.75;5051891;28;20033;-83
2021/06/14 11:42:49;;;;;;;2.15;0.20;;;;;;;34.49;15.38;98624.81;5056212;28;20029;-82
2021/06/14 11:45:30;;;;;;;0.52;0.20;;;;;;;32.55;16.30;98635.66;5065945;28;20032;-82
2021/06/14 11:48:03;;;;;;;1.00;0.25;;;;;;;32.66;16.71;98644.47;5061664;28;20035;-83